Time;durP1;ratioP1;P1;durP2;ratioP2;P2;SDS_P1;SDS_P2;PMS_P1;PMS_P2;Temp;Humidity;BMP_temperature;BMP_pressure;BME280_temperature;BME280_humidity;BME280_pressure;Samples;Min_cycle;Max_cycle;Signal;HPM_P1;HPM_P2
2021/05/17 00:00:23;;;;;;;0.73;0.73;;;9.70;99.90;;;;;;4901443;29;20495;-83
2021/05/17 00:02:49;;;;;;;0.98;0.85;;;9.70;99.90;;;;;;4903553;29;20414;-79
2021/05/17 00:05:15;;;;;;;0.50;0.50;;;9.70;99.90;;;;;;4877555;29;20405;-81
2021/05/17 00:07:41;;;;;;;0.80;0.80;;;9.70;99.90;;;;;;4875757;29;20428;-88
2021/05/17 00:10:07;;;;;;;0.73;0.73;;;9.70;99.90;;;;;;4889536;29;20430;-85
2021/05/17 00:12:33;;;;;;;0.70;0.70;;;9.70;99.90;;;;;;4907715;29;20385;-84
2021/05/17 00:14:58;;;;;;;0.77;0.77;;;9.60;99.90;;;;;;4904849;29;20459;-83
2021/05/17 00:17:24;;;;;;;2.13;0.70;;;9.60;99.90;;;;;;4914655;29;20419;-82
2021/05/17 00:19:50;;;;;;;1.23;0.90;;;9.60;99.90;;;;;;4905518;29;20419;-91
2021/05/17 00:22:16;;;;;;;1.30;0.70;;;9.60;99.90;;;;;;4884610;29;20413;-88
2021/05/17 00:24:42;;;;;;;0.80;0.80;;;9.60;99.90;;;;;;4917643;29;20473;-85
2021/05/17 00:27:08;;;;;;;0.75;0.75;;;9.50;99.90;;;;;;4902905;29;20416;-86
2021/05/17 00:29:34;;;;;;;1.70;0.77;;;9.50;99.90;;;;;;4900717;29;20439;-88
2021/05/17 00:32:00;;;;;;;0.70;0.70;;;9.50;99.90;;;;;;4884451;29;20419;-88
2021/05/17 00:34:25;;;;;;;1.10;0.80;;;9.50;99.90;;;;;;4884941;29;20483;-85
2021/05/17 00:36:51;;;;;;;0.77;0.77;;;9.50;99.90;;;;;;4885785;29;20400;-81
2021/05/17 00:39:17;;;;;;;0.70;0.70;;;9.50;99.90;;;;;;4872608;29;20407;-82
2021/05/17 00:41:43;;;;;;;0.80;0.80;;;9.60;99.90;;;;;;4870192;29;20483;-84
2021/05/17 00:44:09;;;;;;;1.07;0.70;;;9.50;99.90;;;;;;4864120;29;20412;-91
2021/05/17 00:46:35;;;;;;;0.95;0.95;;;9.40;99.90;;;;;;4880543;29;20511;-89
2021/05/17 00:49:01;;;;;;;0.75;0.75;;;9.40;99.90;;;;;;4882162;29;20403;-81
2021/05/17 00:51:27;;;;;;;0.90;0.90;;;9.40;99.90;;;;;;4884030;29;20411;-85
2021/05/17 00:53:53;;;;;;;0.88;0.88;;;9.40;99.90;;;;;;4866408;29;20907;-84
2021/05/17 00:56:20;;;;;;;0.93;0.93;;;9.30;99.90;;;;;;4897675;29;20436;-86
2021/05/17 00:58:48;;;;;;;1.20;0.88;;;9.30;99.90;;;;;;4901215;29;20422;-86
2021/05/17 01:01:14;;;;;;;0.60;0.60;;;9.30;99.90;;;;;;4900172;29;20406;-88
2021/05/17 01:03:40;;;;;;;0.80;0.80;;;9.20;99.90;;;;;;4869437;29;20444;-83
2021/05/17 01:06:37;;;;;;;0.70;0.70;;;9.20;99.90;;;;;;4900647;29;20968;-86
2021/05/17 01:09:04;;;;;;;1.00;0.90;;;9.10;99.90;;;;;;4897937;29;20511;-89
2021/05/17 01:11:33;;;;;;;0.95;0.90;;;9.10;99.90;;;;;;4909731;29;20399;-88
2021/05/17 01:14:01;;;;;;;1.00;0.80;;;9.10;99.90;;;;;;4866301;29;20421;-92
2021/05/17 01:16:27;;;;;;;0.73;0.73;;;9.00;99.90;;;;;;4880260;29;20421;-90
2021/05/17 01:18:52;;;;;;;0.80;0.80;;;9.00;99.90;;;;;;4896898;29;20408;-86
2021/05/17 01:21:21;;;;;;;0.70;0.70;;;9.00;99.90;;;;;;4898011;29;20403;-94
2021/05/17 01:23:55;;;;;;;0.60;0.60;;;9.00;99.90;;;;;;4882069;29;20792;-83
2021/05/17 01:26:24;;;;;;;2.63;0.90;;;8.90;99.90;;;;;;4898805;29;20404;-89
2021/05/17 01:28:51;;;;;;;0.95;0.88;;;8.90;99.90;;;;;;4897588;29;20781;-86
2021/05/17 01:31:18;;;;;;;0.82;0.82;;;8.90;99.90;;;;;;4882016;29;20403;-89
2021/05/17 01:33:44;;;;;;;1.00;0.85;;;8.90;99.90;;;;;;4880448;29;20427;-88
2021/05/17 01:36:11;;;;;;;0.85;0.75;;;8.80;99.90;;;;;;4891891;29;20525;-87
2021/05/17 01:38:42;;;;;;;0.70;0.70;;;8.70;99.90;;;;;;4879340;29;20420;-82
2021/05/17 01:41:09;;;;;;;0.98;0.98;;;8.70;99.90;;;;;;4885038;29;20446;-85
2021/05/17 01:43:39;;;;;;;0.80;0.80;;;8.70;99.90;;;;;;4913641;29;20415;-93
2021/05/17 01:46:04;;;;;;;0.65;0.65;;;8.60;99.90;;;;;;4896756;29;20424;-92
2021/05/17 01:48:31;;;;;;;0.90;0.90;;;8.50;99.90;;;;;;4893671;29;20498;-84
2021/05/17 01:50:57;;;;;;;1.20;0.98;;;8.40;99.90;;;;;;4880852;29;20506;-84
2021/05/17 01:53:23;;;;;;;0.77;0.77;;;8.50;99.90;;;;;;4876866;29;20474;-82
2021/05/17 01:55:49;;;;;;;0.70;0.70;;;8.40;99.90;;;;;;4895602;29;20436;-86
2021/05/17 01:58:22;;;;;;;0.80;0.80;;;8.40;99.90;;;;;;4872330;29;20418;-84
2021/05/17 02:00:49;;;;;;;0.70;0.70;;;8.40;99.90;;;;;;4897014;29;21200;-80
2021/05/17 02:03:15;;;;;;;0.80;0.80;;;8.40;99.90;;;;;;4867029;29;20412;-83
2021/05/17 02:05:41;;;;;;;0.90;0.73;;;8.40;99.90;;;;;;4879004;29;20467;-81
2021/05/17 02:08:11;;;;;;;0.82;0.82;;;8.40;99.90;;;;;;4865384;29;20431;-89
2021/05/17 02:10:39;;;;;;;0.70;0.70;;;8.40;99.90;;;;;;4894276;29;20416;-91
2021/05/17 02:13:05;;;;;;;1.45;0.90;;;8.40;99.90;;;;;;4901441;29;20485;-88
2021/05/17 02:15:31;;;;;;;1.30;1.00;;;8.40;99.90;;;;;;4875741;29;20419;-84
2021/05/17 02:18:05;;;;;;;0.80;0.80;;;8.30;99.90;;;;;;4862848;29;20419;-88
2021/05/17 02:20:33;;;;;;;0.73;0.73;;;8.40;99.90;;;;;;4877685;29;20413;-85
2021/05/17 02:23:00;;;;;;;1.00;0.90;;;8.40;99.90;;;;;;4895571;29;20437;-93
2021/05/17 02:25:26;;;;;;;0.73;0.73;;;8.30;99.90;;;;;;4863299;29;20492;-87
2021/05/17 02:27:56;;;;;;;0.80;0.80;;;8.30;99.90;;;;;;4867254;29;20479;-88
2021/05/17 02:30:22;;;;;;;0.80;0.80;;;8.40;99.90;;;;;;4875296;29;20463;-91
2021/05/17 02:32:49;;;;;;;2.60;0.90;;;8.40;99.90;;;;;;4867418;29;20471;-90
2021/05/17 02:35:22;;;;;;;0.80;0.80;;;8.40;99.90;;;;;;4877331;29;21165;-89
2021/05/17 02:37:49;;;;;;;0.90;0.90;;;8.40;99.90;;;;;;4864571;29;20467;-87
2021/05/17 02:40:15;;;;;;;1.50;0.98;;;8.40;99.90;;;;;;4880512;29;20427;-91
2021/05/17 02:42:43;;;;;;;1.08;0.90;;;8.50;99.90;;;;;;4889972;29;20411;-93
2021/05/17 02:45:10;;;;;;;0.90;0.90;;;8.50;99.90;;;;;;4876152;29;20425;-86
2021/05/17 02:47:37;;;;;;;0.87;0.80;;;8.50;99.90;;;;;;4897648;29;20480;-90
2021/05/17 02:50:07;;;;;;;0.90;0.90;;;8.60;99.90;;;;;;4886169;29;20433;-89
2021/05/17 02:52:33;;;;;;;1.17;1.10;;;8.50;99.90;;;;;;4894567;29;20435;-88
2021/05/17 02:55:05;;;;;;;2.10;0.98;;;8.60;99.90;;;;;;4881668;29;21149;-83
2021/05/17 02:57:47;;;;;;;0.80;0.80;;;8.60;99.90;;;;;;4896417;29;20418;-85
2021/05/17 03:00:21;;;;;;;3.67;1.03;;;8.60;99.90;;;;;;4895201;29;20559;-83
2021/05/17 03:03:03;;;;;;;0.80;0.77;;;8.50;99.90;;;;;;4895965;29;20457;-85
2021/05/17 03:05:41;;;;;;;2.08;0.90;;;8.50;99.90;;;;;;4906187;29;20973;-82
2021/05/17 03:08:13;;;;;;;0.97;0.83;;;8.50;99.90;;;;;;4866565;29;21228;-79
2021/05/17 03:10:43;;;;;;;1.10;1.00;;;8.50;99.90;;;;;;4895590;29;20496;-81
2021/05/17 03:13:10;;;;;;;0.80;0.80;;;8.50;99.90;;;;;;4882802;29;20415;-88
2021/05/17 03:15:37;;;;;;;1.10;1.10;;;8.60;99.90;;;;;;4881599;29;20486;-84
2021/05/17 03:18:05;;;;;;;1.00;1.00;;;8.60;99.90;;;;;;4883637;29;20438;-85
2021/05/17 03:20:31;;;;;;;0.80;0.80;;;8.80;99.90;;;;;;4897487;29;20589;-85
2021/05/17 03:22:57;;;;;;;1.33;1.20;;;8.80;99.90;;;;;;4879850;29;20420;-80
2021/05/17 03:25:30;;;;;;;0.80;0.80;;;8.90;99.90;;;;;;4897460;29;20410;-84
2021/05/17 03:27:56;;;;;;;0.90;0.90;;;8.90;99.90;;;;;;4898204;29;20411;-79
2021/05/17 03:30:22;;;;;;;0.90;0.90;;;8.90;99.90;;;;;;4882273;29;20478;-79
2021/05/17 03:32:47;;;;;;;0.90;0.90;;;9.00;99.90;;;;;;4878231;29;20434;-80
2021/05/17 03:35:13;;;;;;;1.00;1.00;;;9.00;99.90;;;;;;4882246;29;21130;-82
2021/05/17 03:37:39;;;;;;;1.10;1.00;;;9.10;99.90;;;;;;4893112;29;20937;-86
2021/05/17 03:40:05;;;;;;;1.13;1.03;;;9.10;99.90;;;;;;4894795;29;20446;-84
2021/05/17 03:42:30;;;;;;;1.20;1.20;;;9.20;99.90;;;;;;4881407;29;20418;-88
2021/05/17 03:44:56;;;;;;;1.58;0.85;;;9.20;99.90;;;;;;4880371;29;20499;-81
2021/05/17 03:47:22;;;;;;;1.10;1.10;;;9.30;99.90;;;;;;4910495;29;20410;-84
2021/05/17 03:49:47;;;;;;;1.00;1.00;;;9.30;99.90;;;;;;4914544;29;20415;-81
2021/05/17 03:52:13;;;;;;;1.00;1.00;;;9.40;99.90;;;;;;4903532;29;20420;-83
2021/05/17 03:54:39;;;;;;;1.00;0.90;;;9.40;99.90;;;;;;4897965;29;20421;-79
2021/05/17 03:57:05;;;;;;;1.30;0.90;;;9.50;99.90;;;;;;4878781;29;20457;-85
2021/05/17 03:59:32;;;;;;;0.80;0.80;;;9.50;99.90;;;;;;4866447;29;20411;-82
2021/05/17 04:01:57;;;;;;;0.77;0.77;;;9.60;99.90;;;;;;4887972;29;20430;-91
2021/05/17 04:04:25;;;;;;;1.20;1.10;;;9.70;99.90;;;;;;4877147;29;20433;-87
2021/05/17 04:14:58;;;;;;;1.20;1.10;;;9.80;99.90;;;;;;4901577;29;20399;-86
2021/05/17 04:17:24;;;;;;;1.00;0.90;;;9.80;99.90;;;;;;4898805;29;20440;-89
2021/05/17 04:19:49;;;;;;;1.00;1.00;;;9.90;99.90;;;;;;4863039;29;20437;-81
2021/05/17 04:22:15;;;;;;;1.80;1.00;;;9.90;99.90;;;;;;4882887;29;20491;-88
2021/05/17 04:24:41;;;;;;;1.10;1.10;;;9.90;99.90;;;;;;4894016;29;20408;-87
2021/05/17 04:27:06;;;;;;;3.30;1.10;;;10.00;99.90;;;;;;4878125;29;20924;-79
2021/05/17 04:29:32;;;;;;;1.10;1.00;;;10.00;99.90;;;;;;4877596;29;20415;-81
2021/05/17 04:31:57;;;;;;;1.00;1.00;;;10.10;99.90;;;;;;4879235;29;20427;-88
2021/05/17 04:34:23;;;;;;;1.67;1.10;;;10.20;99.90;;;;;;4897817;29;20407;-82
2021/05/17 04:36:49;;;;;;;1.00;1.00;;;10.20;99.90;;;;;;4896790;29;20415;-86
2021/05/17 04:39:14;;;;;;;1.17;1.08;;;10.20;99.90;;;;;;4895035;29;20415;-87
2021/05/17 04:41:40;;;;;;;1.00;0.90;;;10.20;99.90;;;;;;4882993;29;20414;-88
2021/05/17 04:44:06;;;;;;;0.85;0.85;;;10.20;99.90;;;;;;4896763;29;20399;-84
2021/05/17 04:46:31;;;;;;;1.00;1.00;;;10.30;99.90;;;;;;4889739;29;20408;-81
2021/05/17 04:48:57;;;;;;;1.00;1.00;;;10.30;99.90;;;;;;4894763;29;20435;-78
2021/05/17 04:51:23;;;;;;;0.90;0.90;;;10.40;99.90;;;;;;4876556;29;20393;-87
2021/05/17 04:53:50;;;;;;;1.05;1.02;;;10.50;99.90;;;;;;4876206;29;20441;-88
2021/05/17 04:56:15;;;;;;;0.82;0.82;;;10.50;99.90;;;;;;4879150;29;20503;-83
2021/05/17 04:58:41;;;;;;;0.90;0.90;;;10.60;99.90;;;;;;4881546;29;20889;-85
2021/05/17 05:01:06;;;;;;;1.00;1.00;;;10.70;99.90;;;;;;4897948;29;20417;-88
2021/05/17 05:03:33;;;;;;;1.00;1.00;;;10.80;99.90;;;;;;4868758;29;20414;-93
2021/05/17 05:05:59;;;;;;;0.83;0.83;;;10.90;99.90;;;;;;4861208;29;21063;-82
2021/05/17 05:08:24;;;;;;;1.05;0.95;;;10.90;99.90;;;;;;4890872;29;20408;-84
2021/05/17 05:10:50;;;;;;;0.73;0.73;;;10.90;99.90;;;;;;4898042;29;20435;-84
2021/05/17 05:13:16;;;;;;;0.90;0.90;;;11.00;99.90;;;;;;4884760;29;20427;-86
2021/05/17 05:15:42;;;;;;;0.90;0.90;;;11.00;99.90;;;;;;4880587;29;20424;-86
2021/05/17 05:18:07;;;;;;;0.80;0.80;;;11.10;99.90;;;;;;4883405;29;20444;-90
2021/05/17 05:20:33;;;;;;;0.80;0.80;;;11.10;99.90;;;;;;4901889;29;20413;-94
2021/05/17 05:23:01;;;;;;;0.95;0.95;;;11.20;99.90;;;;;;4889571;29;20475;-92
2021/05/17 05:25:31;;;;;;;0.90;0.90;;;11.40;99.90;;;;;;4887521;29;20391;-92
2021/05/17 05:27:58;;;;;;;0.95;0.95;;;11.40;99.90;;;;;;4863597;29;20408;-88
2021/05/17 05:32:56;;;;;;;1.70;1.60;;;11.50;99.90;;;;;;4887628;29;20419;-95
2021/05/17 05:35:24;;;;;;;2.88;1.58;;;11.50;99.90;;;;;;4895882;29;20864;-92
2021/05/17 05:37:49;;;;;;;1.13;1.10;;;11.60;99.90;;;;;;4884978;29;20404;-94
2021/05/17 05:40:15;;;;;;;0.90;0.90;;;11.60;99.90;;;;;;4894605;29;20506;-88
2021/05/17 05:42:41;;;;;;;0.82;0.82;;;11.60;99.90;;;;;;4872076;29;20427;-94
2021/05/17 05:45:10;;;;;;;1.97;1.17;;;11.70;99.90;;;;;;4885172;29;20404;-88
2021/05/17 05:47:36;;;;;;;1.00;1.00;;;11.70;99.90;;;;;;4872735;29;20407;-92
2021/05/17 05:50:01;;;;;;;0.90;0.90;;;11.70;99.90;;;;;;4870962;29;20409;-93
2021/05/17 05:52:27;;;;;;;2.00;1.00;;;11.80;99.90;;;;;;4873331;29;20411;-94
2021/05/17 05:54:52;;;;;;;1.10;1.10;;;11.90;99.90;;;;;;4854216;29;20405;-93
2021/05/17 05:57:18;;;;;;;1.07;1.07;;;11.80;99.90;;;;;;4890259;29;20411;-90
2021/05/17 05:59:44;;;;;;;1.23;1.10;;;11.90;99.90;;;;;;4892356;29;20474;-88
2021/05/17 06:02:10;;;;;;;1.20;1.10;;;11.90;99.90;;;;;;4896118;29;20396;-84
2021/05/17 06:04:35;;;;;;;0.88;0.88;;;12.00;99.90;;;;;;4878172;29;20464;-84
2021/05/17 06:07:01;;;;;;;1.20;0.90;;;12.00;99.90;;;;;;4880032;29;20408;-89
2021/05/17 06:09:27;;;;;;;0.88;0.88;;;12.00;99.90;;;;;;4898857;29;20408;-88
2021/05/17 06:11:55;;;;;;;0.80;0.80;;;12.10;99.90;;;;;;4897230;29;20407;-86
2021/05/17 06:14:22;;;;;;;1.50;1.00;;;12.00;99.90;;;;;;4897628;29;20399;-87
2021/05/17 06:16:48;;;;;;;1.00;1.00;;;12.10;99.90;;;;;;4871570;29;20443;-91
2021/05/17 06:19:14;;;;;;;0.80;0.80;;;12.20;99.90;;;;;;4876364;29;20443;-90
2021/05/17 06:21:40;;;;;;;0.90;0.90;;;12.20;99.90;;;;;;4876808;29;20394;-89
2021/05/17 06:24:06;;;;;;;2.50;2.30;;;12.30;99.90;;;;;;4896852;29;20921;-92
2021/05/17 06:26:33;;;;;;;1.40;1.30;;;12.30;99.90;;;;;;4893976;29;20424;-90
2021/05/17 06:28:59;;;;;;;1.08;0.93;;;12.40;99.90;;;;;;4896718;29;20407;-93
2021/05/17 06:31:25;;;;;;;1.10;1.00;;;12.50;99.90;;;;;;4894298;29;20399;-90
2021/05/17 06:33:52;;;;;;;0.73;0.73;;;12.50;99.90;;;;;;4897887;29;20448;-94
2021/05/17 06:36:17;;;;;;;1.05;0.95;;;12.70;99.90;;;;;;4881840;29;20387;-92
2021/05/17 06:38:44;;;;;;;0.70;0.70;;;12.80;99.90;;;;;;4896536;29;20489;-86
2021/05/17 06:41:09;;;;;;;1.00;0.80;;;12.80;99.90;;;;;;4886975;29;20413;-91
2021/05/17 06:43:35;;;;;;;0.80;0.80;;;12.90;99.90;;;;;;4884571;29;20476;-92
2021/05/17 06:46:04;;;;;;;0.90;0.90;;;13.00;99.90;;;;;;4897318;29;20403;-92
2021/05/17 06:48:30;;;;;;;0.70;0.70;;;13.10;99.90;;;;;;4883906;29;20482;-87
2021/05/17 06:50:56;;;;;;;0.70;0.70;;;13.20;99.90;;;;;;4906114;29;21027;-89
2021/05/17 06:53:23;;;;;;;0.80;0.80;;;13.30;99.90;;;;;;4917723;29;20419;-83
2021/05/17 06:56:01;;;;;;;0.70;0.70;;;13.40;99.90;;;;;;4919897;29;20391;-89
2021/05/17 06:58:34;;;;;;;0.80;0.80;;;13.50;99.90;;;;;;4892864;29;20474;-88
2021/05/17 07:01:00;;;;;;;1.10;1.00;;;13.80;99.90;;;;;;4882742;29;20467;-88
2021/05/17 07:03:26;;;;;;;0.73;0.73;;;13.90;99.90;;;;;;4881005;29;20482;-90
2021/05/17 07:05:52;;;;;;;0.88;0.88;;;14.00;99.90;;;;;;4881984;29;20422;-93
2021/05/17 07:13:28;;;;;;;1.67;1.30;;;14.10;99.90;;;;;;4903748;29;20427;-91
2021/05/17 07:15:54;;;;;;;0.80;0.80;;;14.40;99.90;;;;;;4912334;29;20395;-94
2021/05/17 07:18:20;;;;;;;1.90;0.90;;;14.50;99.90;;;;;;4882639;29;20423;-93
2021/05/17 07:25:59;;;;;;;1.00;0.90;;;15.00;99.90;;;;;;4901643;29;20419;-89
2021/05/17 07:28:26;;;;;;;1.00;1.00;;;15.30;99.90;;;;;;4896238;29;20464;-92
2021/05/17 07:30:51;;;;;;;3.85;0.90;;;15.30;99.90;;;;;;4895201;29;20412;-90
2021/05/17 07:33:17;;;;;;;0.70;0.70;;;15.50;99.90;;;;;;4897327;29;20426;-88
2021/05/17 07:35:43;;;;;;;0.63;0.63;;;15.70;99.90;;;;;;4902900;29;20405;-91
2021/05/17 07:38:08;;;;;;;0.70;0.70;;;15.80;99.90;;;;;;4891708;29;20408;-85
2021/05/17 07:40:34;;;;;;;0.60;0.60;;;15.80;99.90;;;;;;4885348;29;20411;-90
2021/05/17 07:42:59;;;;;;;0.80;0.80;;;16.00;99.90;;;;;;4921104;29;20405;-88
2021/05/17 07:45:25;;;;;;;0.80;0.80;;;16.20;99.90;;;;;;4917382;29;20435;-80
2021/05/17 07:47:51;;;;;;;0.60;0.60;;;16.50;99.90;;;;;;4887856;29;20412;-91
2021/05/17 07:50:17;;;;;;;0.67;0.67;;;16.80;99.90;;;;;;4919215;29;20723;-84
2021/05/17 07:52:43;;;;;;;0.88;0.88;;;17.20;99.90;;;;;;4921384;29;20472;-84
2021/05/17 07:55:09;;;;;;;0.70;0.70;;;17.50;99.90;;;;;;4915262;29;20409;-86
2021/05/17 07:57:37;;;;;;;1.27;0.70;;;17.60;99.90;;;;;;4918379;29;20400;-86
2021/05/17 08:00:07;;;;;;;0.60;0.60;;;17.70;99.90;;;;;;4916466;29;20485;-84
2021/05/17 08:02:34;;;;;;;0.65;0.65;;;17.50;99.90;;;;;;4907996;29;20401;-84
2021/05/17 08:05:00;;;;;;;2.20;0.70;;;17.50;99.90;;;;;;4915022;29;20411;-92
2021/05/17 08:07:29;;;;;;;0.90;0.70;;;17.50;99.90;;;;;;4909482;29;20450;-86
2021/05/17 08:09:55;;;;;;;4.15;0.65;;;17.80;99.90;;;;;;4942478;29;20408;-81
2021/05/17 08:12:21;;;;;;;1.58;0.70;;;18.00;99.90;;;;;;4947595;29;20904;-82
2021/05/17 08:14:46;;;;;;;0.67;0.67;;;18.30;99.90;;;;;;4916515;29;20406;-82
2021/05/17 08:17:12;;;;;;;1.15;1.05;;;18.40;99.90;;;;;;4917795;29;20432;-88
2021/05/17 08:19:38;;;;;;;1.20;1.20;;;18.50;99.90;;;;;;4895744;29;20416;-84
2021/05/17 08:22:05;;;;;;;1.13;0.90;;;18.60;99.90;;;;;;4917173;29;20408;-86
2021/05/17 08:24:31;;;;;;;0.70;0.70;;;18.40;99.90;;;;;;4906230;29;20388;-90
2021/05/17 08:26:59;;;;;;;0.60;0.60;;;18.40;99.90;;;;;;4934794;29;20479;-90
2021/05/17 08:29:32;;;;;;;0.60;0.60;;;18.30;99.90;;;;;;4916428;29;20404;-88
2021/05/17 08:31:58;;;;;;;1.00;0.63;;;18.20;99.90;;;;;;4902169;29;20405;-81
2021/05/17 08:34:25;;;;;;;0.90;0.90;;;18.40;99.90;;;;;;4901895;29;20405;-81
2021/05/17 08:36:57;;;;;;;1.40;1.30;;;18.90;99.90;;;;;;4930459;29;20451;-81
2021/05/17 08:39:26;;;;;;;0.50;0.50;;;19.10;99.90;;;;;;4939125;29;20364;-80
2021/05/17 08:41:52;;;;;;;0.80;0.80;;;18.90;99.90;;;;;;4954491;29;20430;-81
2021/05/17 08:44:18;;;;;;;0.43;0.43;;;18.90;99.90;;;;;;4937871;29;20394;-79
2021/05/17 08:46:47;;;;;;;1.27;1.00;;;18.80;99.90;;;;;;4933081;29;20410;-85
2021/05/17 08:49:15;;;;;;;1.15;0.80;;;18.80;99.90;;;;;;4950252;29;20402;-85
2021/05/17 08:51:41;;;;;;;1.17;1.08;;;18.80;99.90;;;;;;4899044;29;20407;-83
2021/05/17 08:54:09;;;;;;;1.70;0.80;;;19.00;99.90;;;;;;4936810;29;20415;-80
2021/05/17 08:56:39;;;;;;;1.13;0.90;;;19.20;99.90;;;;;;4925949;29;20397;-81
2021/05/17 08:59:05;;;;;;;0.80;0.80;;;19.30;99.90;;;;;;4927573;29;20423;-80
2021/05/17 09:01:34;;;;;;;1.20;1.10;;;19.50;99.90;;;;;;4925278;28;20407;-81
2021/05/17 09:04:22;;;;;;;0.90;0.90;;;19.70;99.90;;;;;;4910072;29;20410;-80
2021/05/17 09:06:59;;;;;;;0.93;0.93;;;19.90;99.90;;;;;;4936586;29;20419;-81
2021/05/17 09:09:56;;;;;;;1.08;0.80;;;20.20;99.90;;;;;;4927152;29;20411;-81
2021/05/17 09:12:34;;;;;;;0.93;0.80;;;20.70;99.90;;;;;;4917952;23;20500;-78
2021/05/17 09:14:59;;;;;;;1.50;0.90;;;20.70;99.90;;;;;;4898798;29;20482;-78
2021/05/17 09:17:25;;;;;;;2.10;0.77;;;20.70;99.90;;;;;;4895286;29;20506;-78
2021/05/17 09:19:51;;;;;;;0.57;0.57;;;20.80;99.90;;;;;;4883541;29;20455;-79
2021/05/17 09:22:18;;;;;;;1.40;0.60;;;20.80;99.90;;;;;;4878118;29;20407;-79
2021/05/17 09:24:54;;;;;;;0.73;0.73;;;21.10;99.90;;;;;;4873404;29;20403;-78
2021/05/17 09:27:30;;;;;;;2.60;0.70;;;21.20;99.90;;;;;;4879463;29;20548;-78
2021/05/17 09:29:56;;;;;;;0.50;0.50;;;21.20;99.90;;;;;;4899317;29;20412;-78
2021/05/17 09:32:32;;;;;;;0.50;0.50;;;21.40;99.90;;;;;;4853085;29;20413;-78
2021/05/17 09:35:21;;;;;;;1.20;1.20;;;21.50;99.90;;;;;;4911160;29;20479;-78
2021/05/17 09:37:58;;;;;;;1.00;1.00;;;21.50;99.90;;;;;;4902365;29;20409;-78
2021/05/17 09:40:25;;;;;;;0.50;0.50;;;21.80;99.90;;;;;;4892893;29;20415;-77
2021/05/17 09:43:09;;;;;;;0.73;0.73;;;21.90;99.90;;;;;;4876442;29;20408;-78
2021/05/17 09:45:36;;;;;;;0.63;0.63;;;21.90;99.90;;;;;;4896652;29;20888;-78
2021/05/17 09:48:07;;;;;;;0.60;0.60;;;21.90;99.90;;;;;;4898428;29;20414;-79
2021/05/17 09:50:53;;;;;;;0.50;0.50;;;22.30;99.90;;;;;;4883126;29;20395;-78
2021/05/17 09:53:24;;;;;;;0.70;0.70;;;22.70;99.90;;;;;;4896805;29;20442;-77
2021/05/17 09:55:50;;;;;;;0.68;0.68;;;23.20;99.90;;;;;;4862610;29;20497;-78
2021/05/17 09:58:37;;;;;;;0.70;0.70;;;23.40;99.90;;;;;;4877923;29;20480;-78
2021/05/17 10:01:28;;;;;;;0.50;0.50;;;23.50;99.90;;;;;;4887286;29;20412;-78
2021/05/17 10:04:03;;;;;;;0.60;0.60;;;23.30;99.90;;;;;;4911940;29;20435;-77
2021/05/17 10:06:28;;;;;;;0.65;0.65;;;23.30;99.90;;;;;;4877802;29;20405;-78
2021/05/17 10:08:55;;;;;;;0.90;0.50;;;23.50;99.90;;;;;;4897809;29;20905;-78
2021/05/17 10:11:22;;;;;;;0.60;0.60;;;23.20;99.30;;;;;;4896099;29;20404;-79
2021/05/17 10:13:47;;;;;;;2.00;1.00;;;22.50;99.60;;;;;;4897016;29;20467;-78
2021/05/17 10:16:15;;;;;;;0.80;0.80;;;21.40;99.90;;;;;;4880386;29;20910;-79
2021/05/17 10:18:41;;;;;;;1.00;1.00;;;19.60;99.90;;;;;;4881330;29;20407;-80
2021/05/17 10:21:10;;;;;;;0.80;0.80;;;19.20;99.90;;;;;;4877776;29;20409;-81
2021/05/17 10:23:37;;;;;;;0.82;0.70;;;18.50;99.90;;;;;;4865171;29;20401;-87
2021/05/17 10:26:08;;;;;;;0.65;0.65;;;18.20;99.90;;;;;;4880920;29;20393;-85
2021/05/17 10:28:34;;;;;;;0.57;0.57;;;18.00;99.90;;;;;;4896850;29;20760;-77
2021/05/17 10:31:22;;;;;;;0.63;0.63;;;18.50;99.90;;;;;;4892114;29;20412;-80
2021/05/17 10:34:07;;;;;;;0.80;0.80;;;18.70;99.90;;;;;;4861525;29;20908;-78
2021/05/17 10:36:53;;;;;;;0.73;0.73;;;19.10;99.90;;;;;;4872362;29;20400;-79
2021/05/17 10:39:22;;;;;;;0.83;0.83;;;19.40;99.90;;;;;;4913760;29;20402;-77
2021/05/17 10:47:42;;;;;;;0.80;0.80;;;19.80;99.90;;;;;;4884761;29;20409;-77
2021/05/17 10:50:18;;;;;;;0.70;0.70;;;20.20;99.90;;;;;;4894377;29;20475;-77
2021/05/17 10:52:44;;;;;;;0.60;0.60;;;20.60;99.90;;;;;;4879175;29;20475;-77
2021/05/17 10:55:19;;;;;;;0.40;0.40;;;20.80;99.90;;;;;;4880362;29;20841;-77
2021/05/17 11:00:27;;;;;;;1.20;1.17;;;21.50;99.90;;;;;;4914886;29;21173;-77
2021/05/17 11:03:06;;;;;;;0.90;0.90;;;21.50;99.90;;;;;;4888969;29;20408;-77
2021/05/17 11:05:34;;;;;;;0.77;0.77;;;21.10;99.90;;;;;;4883834;29;20918;-77
2021/05/17 11:08:02;;;;;;;0.68;0.68;;;20.80;99.90;;;;;;4895039;29;20495;-77
2021/05/17 11:10:36;;;;;;;0.75;0.75;;;20.80;99.90;;;;;;4902285;29;20410;-77
2021/05/17 11:13:07;;;;;;;1.00;0.90;;;21.10;99.90;;;;;;4886207;29;20409;-77
2021/05/17 11:15:58;;;;;;;0.60;0.60;;;21.70;99.90;;;;;;4899660;29;20399;-77
2021/05/17 11:18:30;;;;;;;0.70;0.70;;;21.80;99.90;;;;;;4883489;29;20401;-77
2021/05/17 11:20:57;;;;;;;0.50;0.50;;;21.60;99.90;;;;;;4883063;29;20447;-77
2021/05/17 11:23:26;;;;;;;0.50;0.50;;;21.50;99.90;;;;;;4863909;29;20799;-78
2021/05/17 11:26:04;;;;;;;0.50;0.50;;;21.10;99.90;;;;;;4911292;29;20445;-77
2021/05/17 11:28:34;;;;;;;0.75;0.73;;;21.20;99.90;;;;;;4884128;29;20441;-77
2021/05/17 11:31:15;;;;;;;0.70;0.70;;;21.80;99.90;;;;;;4899707;29;20402;-77
2021/05/17 11:33:59;;;;;;;0.68;0.68;;;22.50;99.90;;;;;;4882726;29;20452;-77
2021/05/17 11:36:29;;;;;;;0.68;0.68;;;22.50;99.90;;;;;;4899012;29;20405;-78
2021/05/17 11:39:16;;;;;;;0.50;0.50;;;23.20;99.90;;;;;;4898064;29;20896;-78
2021/05/17 11:41:50;;;;;;;1.27;0.75;;;23.60;95.80;;;;;;4901491;29;20403;-76
2021/05/17 11:44:30;;;;;;;0.93;0.85;;;23.70;98.60;;;;;;4882853;29;20405;-77
2021/05/17 11:47:15;;;;;;;0.55;0.55;;;23.90;99.90;;;;;;4883692;29;20484;-77
2021/05/17 11:49:44;;;;;;;0.70;0.70;;;23.60;97.40;;;;;;4901644;29;20401;-77
2021/05/17 11:52:14;;;;;;;0.60;0.60;;;23.20;99.90;;;;;;4914725;29;20406;-77
2021/05/17 11:54:41;;;;;;;0.57;0.57;;;23.00;98.90;;;;;;4879658;29;20403;-77
2021/05/17 11:57:09;;;;;;;0.60;0.60;;;22.80;99.10;;;;;;4876358;29;20896;-77
2021/05/17 11:59:34;;;;;;;0.63;0.63;;;22.70;97.40;;;;;;4886844;29;20935;-77
2021/05/17 12:02:11;;;;;;;0.55;0.55;;;22.70;94.70;;;;;;4866610;29;20405;-80
2021/05/17 12:04:40;;;;;;;1.23;0.70;;;22.30;95.10;;;;;;4883116;29;20397;-77
2021/05/17 12:07:08;;;;;;;0.60;0.60;;;22.30;99.10;;;;;;4882617;29;20911;-77
2021/05/17 12:09:46;;;;;;;0.80;0.70;;;22.10;96.50;;;;;;4881908;29;20412;-77
2021/05/17 12:12:14;;;;;;;0.60;0.60;;;22.10;96.80;;;;;;4896435;29;20813;-78
2021/05/17 12:14:44;;;;;;;0.60;0.60;;;22.40;97.90;;;;;;4866318;29;20994;-77
2021/05/17 12:17:11;;;;;;;1.30;0.70;;;22.50;94.60;;;;;;4871790;29;20444;-77
2021/05/17 12:19:37;;;;;;;0.60;0.60;;;22.30;96.90;;;;;;4880941;29;20469;-77
2021/05/17 12:22:10;;;;;;;1.80;0.50;;;22.20;94.80;;;;;;4881566;29;20417;-78
2021/05/17 12:24:36;;;;;;;1.10;0.70;;;22.00;92.90;;;;;;4882481;29;20416;-77
2021/05/17 12:27:28;;;;;;;0.80;0.40;;;22.20;95.30;;;;;;4870752;29;20461;-77
2021/05/17 12:30:01;;;;;;;0.60;0.60;;;22.10;95.30;;;;;;4878989;29;20416;-78
2021/05/17 12:32:34;;;;;;;0.65;0.65;;;22.40;95.60;;;;;;4881871;29;20452;-77
2021/05/17 12:35:01;;;;;;;1.58;0.70;;;22.90;92.30;;;;;;4915856;29;20459;-78
2021/05/17 12:37:30;;;;;;;0.60;0.60;;;23.10;94.50;;;;;;4881963;29;20938;-77
2021/05/17 12:40:19;;;;;;;1.20;0.60;;;23.50;93.60;;;;;;4882024;29;20435;-78
2021/05/17 12:42:45;;;;;;;1.00;0.80;;;23.90;92.20;;;;;;4866711;29;20433;-78
2021/05/17 12:45:15;;;;;;;0.60;0.60;;;24.10;90.80;;;;;;4839820;29;20454;-77
2021/05/17 12:47:42;;;;;;;1.02;0.73;;;24.30;83.90;;;;;;4881660;29;20856;-77
2021/05/17 12:50:34;;;;;;;0.60;0.60;;;24.40;85.30;;;;;;4882017;29;20833;-78
2021/05/17 12:53:04;;;;;;;1.03;0.63;;;24.80;81.80;;;;;;4863348;29;20488;-78
2021/05/17 12:55:35;;;;;;;0.65;0.65;;;24.80;75.10;;;;;;4882053;29;20433;-78
2021/05/17 12:58:01;;;;;;;0.60;0.60;;;24.30;75.40;;;;;;4866251;29;20825;-77
2021/05/17 13:00:53;;;;;;;1.03;0.83;;;24.30;77.90;;;;;;4847209;29;20418;-77
2021/05/17 13:03:21;;;;;;;0.70;0.70;;;23.70;76.50;;;;;;4869820;29;20516;-78
2021/05/17 13:05:51;;;;;;;0.68;0.68;;;23.70;79.80;;;;;;4888143;29;20800;-77
2021/05/17 13:08:16;;;;;;;0.60;0.60;;;24.10;78.30;;;;;;4897591;29;20406;-77
2021/05/17 13:10:59;;;;;;;0.80;0.80;;;24.50;76.20;;;;;;4882369;29;20460;-78
2021/05/17 13:13:43;;;;;;;3.65;2.72;;;24.60;72.40;;;;;;4887628;29;20901;-78
2021/05/17 13:16:36;;;;;;;0.70;0.70;;;24.60;72.50;;;;;;4914877;29;20423;-78
2021/05/17 13:21:45;;;;;;;1.17;0.87;;;24.60;74.70;;;;;;4901040;29;20842;-78
2021/05/17 13:32:12;;;;;;;0.82;0.82;;;25.40;67.30;;;;;;4901289;29;21014;-78
2021/05/17 13:34:37;;;;;;;1.80;0.52;;;25.70;68.00;;;;;;4865994;29;20427;-78
2021/05/17 13:37:03;;;;;;;0.70;0.70;;;25.80;63.90;;;;;;4867476;29;20403;-78
2021/05/17 13:39:29;;;;;;;0.67;0.67;;;25.00;63.30;;;;;;4915742;29;20942;-77